createdAt,value
2023-05-19T00:01:13.648Z,102900.25
2023-05-19T00:03:52.515Z,102901.94
2023-05-19T00:06:24.893Z,102892.53
2023-05-19T00:09:05.416Z,102899.34
2023-05-19T00:11:32.145Z,102898.50
2023-05-19T00:14:00.330Z,102896.78
2023-05-19T00:16:28.807Z,102890.78
2023-05-19T00:18:57.159Z,102882.22
2023-05-19T00:21:23.942Z,102886.47
2023-05-19T00:23:50.493Z,102878.78
2023-05-19T00:26:16.967Z,102879.63
2023-05-19T00:28:43.530Z,102873.63
2023-05-19T00:31:09.970Z,102875.34
2023-05-19T00:33:36.566Z,102876.16
2023-05-19T00:36:04.261Z,102874.44
2023-05-19T00:38:32.277Z,102879.56
2023-05-19T00:41:00.060Z,102875.28
2023-05-19T00:43:26.643Z,102881.22
2023-05-19T00:45:53.225Z,102876.09
2023-05-19T00:48:19.718Z,102879.47
2023-05-19T00:50:46.497Z,102877.75
2023-05-19T00:53:14.869Z,102875.19
2023-05-19T00:55:42.701Z,102876.84
2023-05-19T00:58:10.342Z,102874.28
2023-05-19T01:00:37.168Z,102878.50
2023-05-19T01:03:11.227Z,102869.13
2023-05-19T01:05:44.629Z,102874.19
2023-05-19T01:08:11.404Z,102864.78
2023-05-19T01:10:37.882Z,102877.53
2023-05-19T01:13:06.401Z,102878.41
2023-05-19T01:15:57.647Z,102877.53
2023-05-19T01:18:32.508Z,102880.97
2023-05-19T01:21:25.108Z,102878.41
2023-05-19T01:23:54.199Z,102877.50
2023-05-19T01:26:59.250Z,102880.03
2023-05-19T01:29:51.119Z,102868.88
2023-05-19T01:32:20.893Z,102873.16
2023-05-19T01:34:50.280Z,102872.28
2023-05-19T01:37:17.918Z,102857.75
2023-05-19T01:39:45.603Z,102856.84
2023-05-19T01:42:14.380Z,102858.56
2023-05-19T01:44:41.699Z,102866.22
2023-05-19T01:47:09.539Z,102861.94
2023-05-19T01:49:36.105Z,102864.47
2023-05-19T01:52:02.702Z,102855.94
2023-05-19T01:54:29.161Z,102861.03
2023-05-19T01:57:40.751Z,102860.16
2023-05-19T02:00:32.076Z,102854.13
2023-05-19T02:03:07.757Z,102841.31
2023-05-19T02:05:34.129Z,102850.69
2023-05-19T02:08:16.982Z,102850.66
2023-05-19T02:10:49.549Z,102850.66
2023-05-19T02:13:20.148Z,102852.34
2023-05-19T02:15:48.604Z,102849.75
2023-05-19T02:18:17.927Z,102859.13
2023-05-19T02:20:44.509Z,102853.19
2023-05-19T02:23:11.046Z,102846.31
2023-05-19T02:25:37.521Z,102843.66
2023-05-19T02:28:04.187Z,102849.59
2023-05-19T02:30:32.001Z,102840.16
2023-05-19T02:32:58.748Z,102843.56
2023-05-19T02:35:25.210Z,102832.47
2023-05-19T02:37:51.619Z,102837.53
2023-05-19T02:40:18.229Z,102834.13
2023-05-19T02:42:44.674Z,102827.25
2023-05-19T02:45:11.594Z,102832.34
2023-05-19T02:47:38.420Z,102827.19
2023-05-19T02:50:06.030Z,102828.00
2023-05-19T02:52:32.470Z,102825.44
2023-05-19T02:54:59.074Z,102824.59
2023-05-19T02:57:26.714Z,102826.28
2023-05-19T02:59:53.202Z,102813.50
2023-05-19T03:02:19.709Z,102821.16
2023-05-19T03:04:46.270Z,102817.72
2023-05-19T03:07:16.375Z,102819.44
2023-05-19T03:09:42.829Z,102808.31
2023-05-19T03:12:09.356Z,102813.41
2023-05-19T03:14:37.777Z,102813.41
2023-05-19T03:17:07.473Z,102810.81
2023-05-19T03:19:33.893Z,102813.34
2023-05-19T03:22:00.307Z,102813.34
2023-05-19T03:24:26.754Z,102814.16
2023-05-19T03:26:53.245Z,102814.16
2023-05-19T03:29:19.724Z,102819.25
2023-05-19T03:31:46.111Z,102814.97
2023-05-19T03:34:12.554Z,102810.69
2023-05-19T03:36:39.821Z,102812.38
2023-05-19T03:39:06.937Z,102804.69
2023-05-19T03:41:33.422Z,102817.44
2023-05-19T03:44:01.390Z,102807.19
2023-05-19T03:46:27.950Z,102810.59
2023-05-19T03:48:54.472Z,102806.34
2023-05-19T03:51:20.886Z,102809.75
2023-05-19T03:53:48.603Z,102814.84
2023-05-19T03:56:18.096Z,102812.28
2023-05-19T03:58:45.058Z,102817.41
2023-05-19T04:01:12.030Z,102818.25
2023-05-19T04:03:38.613Z,102811.44
2023-05-19T04:06:05.219Z,102817.41
2023-05-19T04:08:32.161Z,102821.69
2023-05-19T04:10:58.755Z,102824.22
2023-05-19T04:13:25.395Z,102811.44
2023-05-19T04:15:52.197Z,102813.16
2023-05-19T04:18:18.677Z,102817.44
2023-05-19T04:20:45.102Z,102811.47
2023-05-19T04:23:11.637Z,102813.19
2023-05-19T04:25:38.268Z,102819.19
2023-05-19T04:28:04.690Z,102817.53
2023-05-19T04:30:31.404Z,102817.53
2023-05-19T04:32:59.180Z,102834.63
2023-05-19T04:35:25.785Z,102818.47
2023-05-19T04:37:54.369Z,102816.75
2023-05-19T04:40:23.614Z,102809.97
2023-05-19T04:42:52.280Z,102817.66
2023-05-19T04:45:18.817Z,102824.53
2023-05-19T04:47:46.965Z,102827.09
2023-05-19T04:50:14.201Z,102825.44
2023-05-19T04:52:42.439Z,102828.91
2023-05-19T04:55:11.293Z,102828.94
2023-05-19T04:57:38.812Z,102828.97
2023-05-19T05:00:08.971Z,102834.13
2023-05-19T05:02:35.474Z,102827.34
2023-05-19T05:05:02.493Z,102825.69
2023-05-19T05:07:30.840Z,102825.72
2023-05-19T05:09:58.638Z,102829.16
2023-05-19T05:12:25.382Z,102836.88
2023-05-19T05:14:52.178Z,102834.34
2023-05-19T05:17:19.429Z,102829.25
2023-05-19T05:19:46.250Z,102832.72
2023-05-19T05:22:13.170Z,102830.19
2023-05-19T05:24:39.883Z,102825.94
2023-05-19T05:27:08.211Z,102830.25
2023-05-19T05:29:34.947Z,102832.88
2023-05-19T05:32:01.503Z,102826.91
2023-05-19T05:34:28.257Z,102834.63
2023-05-19T05:36:54.960Z,102831.22
2023-05-19T05:39:21.486Z,102832.13
2023-05-19T05:41:48.013Z,102826.16
2023-05-19T05:44:14.464Z,102831.34
2023-05-19T05:46:41.287Z,102833.94
2023-05-19T05:49:08.390Z,102836.56
2023-05-19T05:51:35.786Z,102838.31
2023-05-19T05:54:03.063Z,102834.09
2023-05-19T05:56:29.934Z,102836.69
2023-05-19T05:58:56.735Z,102840.16
2023-05-19T06:01:23.888Z,102836.81
2023-05-19T06:03:50.476Z,102833.41
2023-05-19T06:06:17.002Z,102835.22
2023-05-19T06:08:43.543Z,102832.03
2023-05-19T06:11:10.293Z,102824.84
2023-05-19T06:13:36.943Z,102827.59
2023-05-19T06:16:04.010Z,102833.81
2023-05-19T06:18:30.571Z,102823.06
2023-05-19T06:20:57.145Z,102825.09
2023-05-19T06:23:25.182Z,102822.94
2023-05-19T06:25:51.671Z,102820.72
2023-05-19T06:28:18.194Z,102826.59
2023-05-19T06:30:44.634Z,102821.47
2023-05-19T06:33:11.296Z,102827.16
2023-05-19T06:35:38.088Z,102826.31
2023-05-19T06:38:04.583Z,102818.59
2023-05-19T06:40:31.204Z,102822.38
2023-05-19T06:42:57.752Z,102820.53
2023-05-19T06:45:24.172Z,102823.50
2023-05-19T06:47:50.804Z,102825.00
2023-05-19T06:50:17.385Z,102830.06
2023-05-19T06:52:44.332Z,102822.63
2023-05-19T06:55:10.796Z,102824.47
2023-05-19T06:57:37.239Z,102823.75
2023-05-19T07:00:05.111Z,102830.44
2023-05-19T07:02:31.983Z,102829.59
2023-05-19T07:04:58.545Z,102827.78
2023-05-19T07:07:24.988Z,102821.16
2023-05-19T07:09:51.510Z,102822.75
2023-05-19T07:12:18.017Z,102823.16
2023-05-19T07:14:44.595Z,102825.09
2023-05-19T07:17:11.151Z,102822.19
2023-05-19T07:19:37.568Z,102824.56
2023-05-19T07:22:04.423Z,102826.44
2023-05-19T07:24:31.696Z,102822.22
2023-05-19T07:26:58.559Z,102820.94
2023-05-19T07:29:25.115Z,102824.91
2023-05-19T07:31:57.784Z,102824.44
2023-05-19T07:34:24.839Z,102821.16
2023-05-19T07:36:54.304Z,102825.28
2023-05-19T07:39:21.091Z,102823.91
2023-05-19T07:41:52.699Z,102829.88
2023-05-19T07:44:19.336Z,102821.31
2023-05-19T07:46:45.982Z,102817.28
2023-05-19T07:49:12.455Z,102821.38
2023-05-19T07:51:38.935Z,102819.22
2023-05-19T07:54:05.534Z,102813.19
2023-05-19T07:56:31.988Z,102818.88
2023-05-19T07:58:58.440Z,102810.84
2023-05-19T08:01:24.937Z,102806.31
2023-05-19T08:03:51.465Z,102808.25
2023-05-19T08:06:17.979Z,102806.69
2023-05-19T08:08:44.480Z,102797.84
2023-05-19T08:11:10.860Z,102793.53
2023-05-19T08:13:37.298Z,102796.13
2023-05-19T08:16:03.910Z,102791.81
2023-05-19T08:18:30.714Z,102786.22
2023-05-19T08:20:57.217Z,102790.53
2023-05-19T08:23:23.801Z,102786.50
2023-05-19T08:25:50.231Z,102782.09
2023-05-19T08:28:16.906Z,102781.75
2023-05-19T08:30:43.371Z,102778.50
2023-05-19T08:33:09.913Z,102778.25
2023-05-19T08:35:36.476Z,102775.72
2023-05-19T08:38:03.026Z,102778.28
2023-05-19T08:40:32.038Z,102775.06
2023-05-19T08:42:58.677Z,102768.66
2023-05-19T08:45:25.102Z,102765.47
2023-05-19T08:47:52.040Z,102760.09
2023-05-19T08:50:27.086Z,102765.19
2023-05-19T08:53:15.090Z,102766.16
2023-05-19T08:55:58.930Z,102762.63
2023-05-19T08:58:28.124Z,102751.06
2023-05-19T09:00:56.850Z,102754.19
2023-05-19T09:03:26.547Z,102750.31
2023-05-19T09:05:53.221Z,102745.91
2023-05-19T09:08:19.809Z,102756.75
2023-05-19T09:10:46.320Z,102748.19
2023-05-19T09:13:12.810Z,102746.00
2023-05-19T09:15:41.250Z,102746.63
2023-05-19T09:18:12.649Z,102734.38
2023-05-19T09:20:44.279Z,102741.25
2023-05-19T09:23:17.461Z,102751.13
2023-05-19T09:25:48.147Z,102744.41
2023-05-19T09:28:14.729Z,102741.09
2023-05-19T09:30:41.211Z,102741.91
2023-05-19T09:33:10.110Z,102736.13
2023-05-19T09:35:37.081Z,102742.53
2023-05-19T09:38:03.607Z,102741.47
2023-05-19T09:40:30.578Z,102737.72
2023-05-19T09:42:57.074Z,102733.72
2023-05-19T09:45:27.260Z,102735.16
2023-05-19T09:47:53.976Z,102726.34
2023-05-19T09:50:20.515Z,102734.88
2023-05-19T09:52:48.244Z,102744.09
2023-05-19T09:55:15.520Z,102734.56
2023-05-19T09:57:42.027Z,102731.31
2023-05-19T10:00:14.540Z,102733.63
2023-05-19T10:02:45.521Z,102735.03
2023-05-19T10:05:17.153Z,102732.97
2023-05-19T10:07:45.708Z,102727.19
2023-05-19T10:10:13.919Z,102725.38
2023-05-19T10:12:41.066Z,102734.75
2023-05-19T10:15:12.038Z,102727.44
2023-05-19T10:17:40.674Z,102711.00
2023-05-19T10:20:15.841Z,102716.44
2023-05-19T10:22:44.996Z,102719.94
2023-05-19T10:25:15.040Z,102718.06
2023-05-19T10:27:55.232Z,102712.72
2023-05-19T10:30:40.750Z,102712.66
2023-05-19T10:33:12.182Z,102702.63
2023-05-19T10:36:24.654Z,102707.09
2023-05-19T10:39:05.120Z,102698.50
2023-05-19T10:41:46.979Z,102689.13
2023-05-19T10:44:21.188Z,102699.59
2023-05-19T10:46:47.775Z,102692.00
2023-05-19T10:49:22.721Z,102687.88
2023-05-19T10:51:50.013Z,102688.19
2023-05-19T10:54:18.354Z,102687.53
2023-05-19T10:56:47.485Z,102698.50
2023-05-19T10:59:35.621Z,102691.38
2023-05-19T11:02:06.149Z,102697.91
2023-05-19T11:04:49.567Z,102693.03
2023-05-19T11:07:19.711Z,102690.81
2023-05-19T11:09:51.356Z,102681.91
2023-05-19T11:12:25.375Z,102684.59
2023-05-19T11:14:55.474Z,102673.69
2023-05-19T11:17:24.602Z,102668.78
2023-05-19T11:19:56.015Z,102665.03
2023-05-19T11:22:24.876Z,102675.47
2023-05-19T11:24:53.553Z,102678.72
2023-05-19T11:27:34.340Z,102677.84
2023-05-19T11:30:08.115Z,102669.28
2023-05-19T11:32:38.922Z,102664.34
2023-05-19T11:35:06.646Z,102666.00
2023-05-19T11:37:33.315Z,102663.72
2023-05-19T11:40:02.099Z,102664.75
2023-05-19T11:42:28.724Z,102658.44
2023-05-19T11:44:56.096Z,102654.59
2023-05-19T11:47:22.822Z,102656.66
2023-05-19T11:49:51.903Z,102654.47
2023-05-19T11:52:22.590Z,102650.81
2023-05-19T11:54:49.672Z,102653.41
2023-05-19T11:57:16.576Z,102647.47
2023-05-19T11:59:48.056Z,102641.59
2023-05-19T12:02:18.041Z,102642.81
2023-05-19T12:04:44.642Z,102645.66
2023-05-19T12:07:13.058Z,102649.44
2023-05-19T12:09:40.020Z,102646.84
2023-05-19T12:12:07.732Z,102649.13
2023-05-19T12:14:34.509Z,102651.66
2023-05-19T12:17:11.343Z,102648.97
2023-05-19T12:19:38.681Z,102641.69
2023-05-19T12:22:07.060Z,102643.72
2023-05-19T12:24:35.602Z,102646.44
2023-05-19T12:27:07.488Z,102639.84
2023-05-19T12:29:34.591Z,102644.81
2023-05-19T12:32:01.840Z,102640.88
2023-05-19T12:34:28.650Z,102642.84
2023-05-19T12:36:55.114Z,102635.97
2023-05-19T12:39:22.646Z,102633.41
2023-05-19T12:41:49.153Z,102632.66
2023-05-19T12:44:16.670Z,102620.16
2023-05-19T12:46:44.365Z,102616.25
2023-05-19T12:49:11.036Z,102623.59
2023-05-19T12:51:37.576Z,102615.91
2023-05-19T12:54:06.985Z,102627.59
2023-05-19T12:56:33.490Z,102619.16
2023-05-19T12:59:01.659Z,102607.81
2023-05-19T13:01:29.475Z,102608.75
2023-05-19T13:03:56.382Z,102612.94
2023-05-19T13:06:23.119Z,102608.91
2023-05-19T13:08:49.565Z,102609.50
2023-05-19T13:11:16.046Z,102603.84
2023-05-19T13:13:43.906Z,102609.16
2023-05-19T13:16:10.626Z,102599.00
2023-05-19T13:18:38.352Z,102606.25
2023-05-19T13:21:05.734Z,102610.16
2023-05-19T13:23:32.400Z,102603.94
2023-05-19T13:25:59.365Z,102600.59
2023-05-19T13:28:26.338Z,102606.97
2023-05-19T13:30:52.885Z,102599.53
2023-05-19T13:33:19.519Z,102590.47
2023-05-19T13:35:46.034Z,102588.78
2023-05-19T13:38:12.515Z,102598.16
2023-05-19T13:40:39.810Z,102586.88
2023-05-19T13:43:07.349Z,102580.19
2023-05-19T13:45:33.854Z,102586.63
2023-05-19T13:48:00.412Z,102581.16
2023-05-19T13:50:26.876Z,102575.63
2023-05-19T13:52:53.888Z,102570.88
2023-05-19T13:55:20.767Z,102567.47
2023-05-19T13:57:47.257Z,102572.88
2023-05-19T14:00:14.491Z,102570.84
2023-05-19T14:02:41.242Z,102561.59
2023-05-19T14:05:08.533Z,102570.25
2023-05-19T14:07:35.518Z,102567.59
2023-05-19T14:10:03.060Z,102567.78
2023-05-19T14:12:41.566Z,102568.03
2023-05-19T14:15:14.433Z,102565.81
2023-05-19T14:17:41.079Z,102564.78
2023-05-19T14:20:08.401Z,102563.13
2023-05-19T14:22:34.892Z,102566.06
2023-05-19T14:25:02.200Z,102562.13
2023-05-19T14:27:28.644Z,102554.72
2023-05-19T14:29:55.116Z,102555.75
2023-05-19T14:32:22.559Z,102547.47
2023-05-19T14:34:52.833Z,102541.69
2023-05-19T14:37:20.014Z,102544.72
2023-05-19T14:39:46.442Z,102548.91
2023-05-19T14:42:12.861Z,102547.06
2023-05-19T14:44:39.360Z,102540.06
2023-05-19T14:47:07.389Z,102551.13
2023-05-19T14:49:34.023Z,102543.94
2023-05-19T14:52:00.764Z,102537.78
2023-05-19T14:54:27.183Z,102537.91
2023-05-19T14:56:53.754Z,102535.75
2023-05-19T14:59:21.609Z,102533.06
2023-05-19T15:01:48.281Z,102522.69
2023-05-19T15:04:14.914Z,102521.38
2023-05-19T15:06:41.698Z,102529.69
2023-05-19T15:09:08.566Z,102537.81
2023-05-19T15:11:35.027Z,102541.25
2023-05-19T15:14:01.525Z,102538.72
2023-05-19T15:16:28.241Z,102533.63
2023-05-19T15:18:54.896Z,102532.31
2023-05-19T15:21:21.363Z,102527.63
2023-05-19T15:23:47.824Z,102527.56
2023-05-19T15:26:14.526Z,102522.09
2023-05-19T15:28:41.110Z,102525.69
2023-05-19T15:31:07.727Z,102524.47
2023-05-19T15:33:34.956Z,102525.59
2023-05-19T15:36:01.410Z,102521.94
2023-05-19T15:38:29.839Z,102519.19
2023-05-19T15:40:56.812Z,102520.53
2023-05-19T15:43:23.755Z,102521.13
2023-05-19T15:45:52.228Z,102513.78
2023-05-19T15:48:19.113Z,102512.94
2023-05-19T15:50:45.739Z,102512.75
2023-05-19T15:53:12.213Z,102504.09
2023-05-19T15:55:38.695Z,102511.38
2023-05-19T15:58:05.136Z,102506.44
2023-05-19T16:00:32.100Z,102499.22
2023-05-19T16:02:58.836Z,102498.88
2023-05-19T16:05:25.645Z,102503.34
2023-05-19T16:07:52.030Z,102509.00
2023-05-19T16:10:18.487Z,102507.34
2023-05-19T16:12:45.460Z,102501.50
2023-05-19T16:15:11.877Z,102507.84
2023-05-19T16:17:38.362Z,102498.75
2023-05-19T16:20:06.092Z,102486.53
2023-05-19T16:22:32.809Z,102487.69
2023-05-19T16:24:59.250Z,102485.63
2023-05-19T16:27:25.664Z,102479.38
2023-05-19T16:29:52.131Z,102480.97
2023-05-19T16:32:18.797Z,102479.88
2023-05-19T16:34:45.410Z,102478.63
2023-05-19T16:37:11.911Z,102482.06
2023-05-19T16:39:38.482Z,102483.09
2023-05-19T16:42:05.229Z,102482.06
2023-05-19T16:44:31.860Z,102488.53
2023-05-19T16:46:58.357Z,102477.56
2023-05-19T16:49:24.807Z,102492.47
2023-05-19T16:51:52.878Z,102492.31
2023-05-19T16:54:19.604Z,102486.13
2023-05-19T16:56:46.179Z,102489.03
2023-05-19T16:59:12.776Z,102489.34
2023-05-19T17:01:39.341Z,102481.94
2023-05-19T17:04:05.850Z,102483.53
2023-05-19T17:06:32.349Z,102489.13
2023-05-19T17:08:59.128Z,102490.13
2023-05-19T17:11:27.163Z,102488.19
2023-05-19T17:13:53.808Z,102487.50
2023-05-19T17:16:20.260Z,102491.56
2023-05-19T17:18:47.947Z,102493.25
2023-05-19T17:21:14.577Z,102495.13
2023-05-19T17:23:41.528Z,102491.72
2023-05-19T17:26:08.062Z,102479.34
2023-05-19T17:28:34.644Z,102487.09
2023-05-19T17:31:01.471Z,102484.13
2023-05-19T17:33:27.984Z,102485.13
2023-05-19T17:35:54.508Z,102497.03
2023-05-19T17:38:20.958Z,102487.84
2023-05-19T17:40:47.467Z,102498.66
2023-05-19T17:43:13.969Z,102492.56
2023-05-19T17:45:40.465Z,102493.19
2023-05-19T17:48:06.995Z,102489.72
2023-05-19T17:50:33.836Z,102489.31
2023-05-19T17:53:00.677Z,102496.88
2023-05-19T17:55:29.879Z,102487.78
2023-05-19T17:57:57.592Z,102492.91
2023-05-19T18:00:25.290Z,102494.19
2023-05-19T18:02:52.455Z,102491.50
2023-05-19T18:05:19.539Z,102493.56
2023-05-19T18:07:46.172Z,102508.25
2023-05-19T18:10:15.375Z,102505.34
2023-05-19T18:12:42.001Z,102498.97
2023-05-19T18:15:08.712Z,102495.81
2023-05-19T18:17:35.171Z,102505.97
2023-05-19T18:20:01.797Z,102502.91
2023-05-19T18:22:28.371Z,102508.66
2023-05-19T18:24:54.901Z,102507.41
2023-05-19T18:27:21.394Z,102508.47
2023-05-19T18:29:47.868Z,102501.72
2023-05-19T18:32:16.848Z,102509.91
2023-05-19T18:34:43.403Z,102516.59
2023-05-19T18:37:09.858Z,102518.16
2023-05-19T18:39:37.215Z,102523.00
2023-05-19T18:42:03.762Z,102518.72
2023-05-19T18:44:30.558Z,102521.63
2023-05-19T18:46:57.073Z,102532.41
2023-05-19T18:49:24.963Z,102530.50
2023-05-19T18:51:51.791Z,102532.50
2023-05-19T18:54:18.363Z,102527.28
2023-05-19T18:56:44.865Z,102531.06
2023-05-19T18:59:11.435Z,102526.22
2023-05-19T19:01:38.088Z,102533.63
2023-05-19T19:04:04.689Z,102534.16
2023-05-19T19:06:31.617Z,102536.03
2023-05-19T19:08:58.049Z,102537.19
2023-05-19T19:11:24.553Z,102534.91
2023-05-19T19:13:51.424Z,102542.03
2023-05-19T19:16:18.127Z,102538.69
2023-05-19T19:18:44.665Z,102545.31
2023-05-19T19:21:11.408Z,102548.50
2023-05-19T19:23:37.974Z,102544.38
2023-05-19T19:26:04.441Z,102548.94
2023-05-19T19:28:31.068Z,102549.94
2023-05-19T19:30:57.537Z,102552.78
2023-05-19T19:33:24.639Z,102549.44
2023-05-19T19:35:51.495Z,102555.59
2023-05-19T19:38:17.968Z,102561.16
2023-05-19T19:40:44.418Z,102557.91
2023-05-19T19:43:11.065Z,102562.41
2023-05-19T19:45:39.524Z,102570.31
2023-05-19T19:48:07.037Z,102573.84
2023-05-19T19:50:34.423Z,102577.41
2023-05-19T19:53:01.347Z,102576.75
2023-05-19T19:55:28.822Z,102580.53
2023-05-19T19:57:55.398Z,102582.72
2023-05-19T20:00:21.859Z,102582.00
2023-05-19T20:03:03.425Z,102596.09
2023-05-19T20:05:31.804Z,102593.63
2023-05-19T20:07:58.407Z,102598.09
2023-05-19T20:10:24.949Z,102591.34
2023-05-19T20:12:51.802Z,102583.88
2023-05-19T20:15:18.435Z,102586.69
2023-05-19T20:17:44.887Z,102593.81
2023-05-19T20:20:12.231Z,102597.34
2023-05-19T20:22:39.116Z,102598.56
2023-05-19T20:25:06.166Z,102604.72
2023-05-19T20:27:32.675Z,102608.50
2023-05-19T20:29:59.204Z,102610.38
2023-05-19T20:32:25.893Z,102603.69
2023-05-19T20:34:52.399Z,102604.81
2023-05-19T20:37:18.844Z,102606.75
2023-05-19T20:39:45.330Z,102609.56
2023-05-19T20:42:12.240Z,102622.72
2023-05-19T20:44:39.006Z,102617.69
2023-05-19T20:47:08.110Z,102623.88
2023-05-19T20:49:35.031Z,102627.50
2023-05-19T20:52:01.562Z,102627.63
2023-05-19T20:54:28.152Z,102626.16
2023-05-19T20:56:54.781Z,102615.84
2023-05-19T20:59:21.354Z,102631.53
2023-05-19T21:01:48.060Z,102622.22
2023-05-19T21:04:14.621Z,102627.53
2023-05-19T21:06:41.144Z,102624.16
2023-05-19T21:09:07.799Z,102625.22
2023-05-19T21:11:34.351Z,102621.03
2023-05-19T21:14:03.895Z,102628.97
2023-05-19T21:16:31.142Z,102626.44
2023-05-19T21:18:57.655Z,102631.69
2023-05-19T21:21:24.171Z,102628.31
2023-05-19T21:23:50.761Z,102641.38
2023-05-19T21:26:17.557Z,102643.22
2023-05-19T21:28:44.241Z,102642.44
2023-05-19T21:31:10.854Z,102635.72
2023-05-19T21:33:37.349Z,102645.31
2023-05-19T21:36:03.962Z,102638.50
2023-05-19T21:38:30.685Z,102634.28
2023-05-19T21:40:57.135Z,102638.69
2023-05-19T21:43:23.902Z,102641.44
2023-05-19T21:45:50.471Z,102651.03
2023-05-19T21:48:17.025Z,102648.56
2023-05-19T21:50:43.534Z,102650.38
2023-05-19T21:53:10.061Z,102652.16
2023-05-19T21:55:36.528Z,102654.84
2023-05-19T21:58:03.078Z,102660.09
2023-05-19T22:00:29.557Z,102647.25
2023-05-19T22:02:56.171Z,102661.13
2023-05-19T22:05:22.677Z,102660.38
2023-05-19T22:07:49.134Z,102649.25
2023-05-19T22:10:15.587Z,102645.03
2023-05-19T22:12:42.069Z,102655.44
2023-05-19T22:15:09.178Z,102651.22
2023-05-19T22:17:35.616Z,102650.50
2023-05-19T22:20:02.085Z,102647.13
2023-05-19T22:22:28.557Z,102657.53
2023-05-19T22:24:55.272Z,102649.06
2023-05-19T22:27:21.679Z,102649.16
2023-05-19T22:29:48.088Z,102650.03
2023-05-19T22:32:17.907Z,102661.28
2023-05-19T22:34:44.803Z,102653.66
2023-05-19T22:37:11.984Z,102658.00
2023-05-19T22:39:39.091Z,102649.50
2023-05-19T22:42:05.974Z,102650.38
2023-05-19T22:44:32.442Z,102653.03
2023-05-19T22:46:58.941Z,102651.38
2023-05-19T22:49:27.313Z,102656.63
2023-05-19T22:51:53.794Z,102650.66
2023-05-19T22:54:20.477Z,102650.72
2023-05-19T22:56:48.715Z,102651.63
2023-05-19T22:59:17.877Z,102650.81
2023-05-19T23:01:46.513Z,102652.66
2023-05-19T23:04:13.951Z,102659.63
2023-05-19T23:06:40.668Z,102661.50
2023-05-19T23:09:07.128Z,102661.59
2023-05-19T23:11:34.488Z,102657.38
2023-05-19T23:14:01.099Z,102657.50
2023-05-19T23:16:27.534Z,102651.63
2023-05-19T23:18:53.988Z,102649.94
2023-05-19T23:21:20.509Z,102654.31
2023-05-19T23:23:47.057Z,102655.22
2023-05-19T23:26:13.666Z,102651.81
2023-05-19T23:28:42.179Z,102650.22
2023-05-19T23:31:08.784Z,102657.16
2023-05-19T23:33:35.465Z,102648.59
2023-05-19T23:36:07.730Z,102655.59
2023-05-19T23:38:34.852Z,102655.66
2023-05-19T23:41:01.386Z,102652.25
2023-05-19T23:43:27.934Z,102646.34
2023-05-19T23:45:54.491Z,102651.53
2023-05-19T23:48:21.109Z,102654.19
2023-05-19T23:50:47.538Z,102654.19
2023-05-19T23:53:14.427Z,102645.63
2023-05-19T23:55:40.895Z,102644.00
2023-05-19T23:58:07.318Z,102652.66
